sensor_id;sensor_type;location;lat;lon;timestamp;temperature;humidity
17845;DHT22;9047;53.486;10.218;2023-09-19T00:00:42;16.90;99.90
17845;DHT22;9047;53.486;10.218;2023-09-19T00:03:12;17.00;99.90
17845;DHT22;9047;53.486;10.218;2023-09-19T00:05:40;16.90;99.90
17845;DHT22;9047;53.486;10.218;2023-09-19T00:08:10;17.00;99.90
17845;DHT22;9047;53.486;10.218;2023-09-19T00:10:40;17.00;99.90
17845;DHT22;9047;53.486;10.218;2023-09-19T00:13:13;16.90;99.90
17845;DHT22;9047;53.486;10.218;2023-09-19T00:15:44;16.90;99.90
17845;DHT22;9047;53.486;10.218;2023-09-19T00:18:16;16.90;99.90
17845;DHT22;9047;53.486;10.218;2023-09-19T00:20:45;16.90;99.90
17845;DHT22;9047;53.486;10.218;2023-09-19T00:23:15;16.90;99.90
17845;DHT22;9047;53.486;10.218;2023-09-19T00:25:43;16.90;99.90
17845;DHT22;9047;53.486;10.218;2023-09-19T00:28:16;16.90;99.90
17845;DHT22;9047;53.486;10.218;2023-09-19T00:30:45;16.90;99.90
17845;DHT22;9047;53.486;10.218;2023-09-19T00:33:15;16.90;99.90
17845;DHT22;9047;53.486;10.218;2023-09-19T00:35:47;16.80;99.90
17845;DHT22;9047;53.486;10.218;2023-09-19T00:38:15;16.80;99.90
17845;DHT22;9047;53.486;10.218;2023-09-19T00:40:45;16.90;99.90
17845;DHT22;9047;53.486;10.218;2023-09-19T00:43:14;16.80;99.90
17845;DHT22;9047;53.486;10.218;2023-09-19T00:45:47;16.80;99.90
17845;DHT22;9047;53.486;10.218;2023-09-19T00:48:16;16.70;99.90
17845;DHT22;9047;53.486;10.218;2023-09-19T00:50:46;16.70;99.90
17845;DHT22;9047;53.486;10.218;2023-09-19T00:53:18;16.70;99.90
17845;DHT22;9047;53.486;10.218;2023-09-19T00:55:46;16.70;99.90
17845;DHT22;9047;53.486;10.218;2023-09-19T00:58:20;16.60;99.90
17845;DHT22;9047;53.486;10.218;2023-09-19T01:00:48;16.70;99.90
17845;DHT22;9047;53.486;10.218;2023-09-19T01:03:17;16.80;99.90
17845;DHT22;9047;53.486;10.218;2023-09-19T01:05:44;16.80;99.90
17845;DHT22;9047;53.486;10.218;2023-09-19T01:08:15;16.70;99.90
17845;DHT22;9047;53.486;10.218;2023-09-19T01:11:01;16.70;99.90
17845;DHT22;9047;53.486;10.218;2023-09-19T01:13:47;16.70;99.90
17845;DHT22;9047;53.486;10.218;2023-09-19T01:16:23;16.60;99.90
17845;DHT22;9047;53.486;10.218;2023-09-19T01:21:57;16.60;99.90
17845;DHT22;9047;53.486;10.218;2023-09-19T01:24:52;16.60;99.90
17845;DHT22;9047;53.486;10.218;2023-09-19T01:27:38;16.50;99.90
17845;DHT22;9047;53.486;10.218;2023-09-19T01:30:17;16.60;99.90
17845;DHT22;9047;53.486;10.218;2023-09-19T01:32:48;16.50;99.90
17845;DHT22;9047;53.486;10.218;2023-09-19T01:35:18;16.60;99.90
17845;DHT22;9047;53.486;10.218;2023-09-19T01:37:45;16.60;99.90
17845;DHT22;9047;53.486;10.218;2023-09-19T01:40:18;16.50;99.90
17845;DHT22;9047;53.486;10.218;2023-09-19T01:42:52;16.50;99.90
17845;DHT22;9047;53.486;10.218;2023-09-19T01:45:34;16.60;99.90
17845;DHT22;9047;53.486;10.218;2023-09-19T01:48:15;16.70;99.90
17845;DHT22;9047;53.486;10.218;2023-09-19T01:50:54;16.60;99.90
17845;DHT22;9047;53.486;10.218;2023-09-19T01:53:25;16.70;99.90
17845;DHT22;9047;53.486;10.218;2023-09-19T01:55:54;16.70;99.90
17845;DHT22;9047;53.486;10.218;2023-09-19T01:58:29;16.70;99.90
17845;DHT22;9047;53.486;10.218;2023-09-19T02:01:08;16.80;99.90
17845;DHT22;9047;53.486;10.218;2023-09-19T02:03:40;16.70;99.90
17845;DHT22;9047;53.486;10.218;2023-09-19T02:06:15;16.70;99.90
17845;DHT22;9047;53.486;10.218;2023-09-19T02:08:45;16.70;99.90
17845;DHT22;9047;53.486;10.218;2023-09-19T02:11:18;16.70;99.90
17845;DHT22;9047;53.486;10.218;2023-09-19T02:13:46;16.70;99.90
17845;DHT22;9047;53.486;10.218;2023-09-19T02:16:20;16.70;99.90
17845;DHT22;9047;53.486;10.218;2023-09-19T02:18:49;16.60;99.90
17845;DHT22;9047;53.486;10.218;2023-09-19T02:21:23;16.60;99.90
17845;DHT22;9047;53.486;10.218;2023-09-19T02:23:50;16.70;99.90
17845;DHT22;9047;53.486;10.218;2023-09-19T02:26:23;16.60;99.90
17845;DHT22;9047;53.486;10.218;2023-09-19T02:28:53;16.60;99.90
17845;DHT22;9047;53.486;10.218;2023-09-19T02:31:22;16.60;99.90
17845;DHT22;9047;53.486;10.218;2023-09-19T02:33:49;16.60;99.90
17845;DHT22;9047;53.486;10.218;2023-09-19T02:36:19;16.60;99.90
17845;DHT22;9047;53.486;10.218;2023-09-19T02:38:46;16.60;99.90
17845;DHT22;9047;53.486;10.218;2023-09-19T02:41:16;16.70;99.90
17845;DHT22;9047;53.486;10.218;2023-09-19T02:43:43;16.50;99.90
17845;DHT22;9047;53.486;10.218;2023-09-19T02:46:16;16.50;99.90
17845;DHT22;9047;53.486;10.218;2023-09-19T02:48:46;16.50;99.90
17845;DHT22;9047;53.486;10.218;2023-09-19T02:51:17;16.40;99.90
17845;DHT22;9047;53.486;10.218;2023-09-19T02:53:48;16.40;99.90
17845;DHT22;9047;53.486;10.218;2023-09-19T02:56:18;16.50;99.90
17845;DHT22;9047;53.486;10.218;2023-09-19T02:58:45;16.30;99.90
17845;DHT22;9047;53.486;10.218;2023-09-19T03:01:17;16.40;99.90
17845;DHT22;9047;53.486;10.218;2023-09-19T03:03:50;16.40;99.90
17845;DHT22;9047;53.486;10.218;2023-09-19T03:06:18;16.40;99.90
17845;DHT22;9047;53.486;10.218;2023-09-19T03:08:46;16.30;99.90
17845;DHT22;9047;53.486;10.218;2023-09-19T03:11:15;16.20;99.90
17845;DHT22;9047;53.486;10.218;2023-09-19T03:13:51;16.30;99.90
17845;DHT22;9047;53.486;10.218;2023-09-19T03:16:21;16.30;99.90
17845;DHT22;9047;53.486;10.218;2023-09-19T03:18:58;16.20;99.90
17845;DHT22;9047;53.486;10.218;2023-09-19T03:21:27;16.10;99.90
17845;DHT22;9047;53.486;10.218;2023-09-19T03:23:58;16.10;99.90
17845;DHT22;9047;53.486;10.218;2023-09-19T03:26:33;16.20;99.90
17845;DHT22;9047;53.486;10.218;2023-09-19T03:29:03;16.20;99.90
17845;DHT22;9047;53.486;10.218;2023-09-19T03:31:37;16.10;99.90
17845;DHT22;9047;53.486;10.218;2023-09-19T03:34:07;16.20;99.90
17845;DHT22;9047;53.486;10.218;2023-09-19T03:36:34;16.10;99.90
17845;DHT22;9047;53.486;10.218;2023-09-19T03:39:04;16.20;99.90
17845;DHT22;9047;53.486;10.218;2023-09-19T03:41:32;16.10;99.90
17845;DHT22;9047;53.486;10.218;2023-09-19T03:44:03;16.10;99.90
17845;DHT22;9047;53.486;10.218;2023-09-19T03:46:30;16.10;99.90
17845;DHT22;9047;53.486;10.218;2023-09-19T03:48:57;16.00;99.90
17845;DHT22;9047;53.486;10.218;2023-09-19T03:51:27;16.00;99.90
17845;DHT22;9047;53.486;10.218;2023-09-19T03:53:57;16.00;99.90
17845;DHT22;9047;53.486;10.218;2023-09-19T03:56:27;16.00;99.90
17845;DHT22;9047;53.486;10.218;2023-09-19T03:58:54;15.80;99.90
17845;DHT22;9047;53.486;10.218;2023-09-19T04:01:25;15.90;99.90
17845;DHT22;9047;53.486;10.218;2023-09-19T04:03:54;15.80;99.90
17845;DHT22;9047;53.486;10.218;2023-09-19T04:06:24;15.80;99.90
17845;DHT22;9047;53.486;10.218;2023-09-19T04:09:00;15.70;99.90
17845;DHT22;9047;53.486;10.218;2023-09-19T04:11:27;15.70;99.90
17845;DHT22;9047;53.486;10.218;2023-09-19T04:13:54;15.70;99.90
17845;DHT22;9047;53.486;10.218;2023-09-19T04:16:22;15.50;99.90
17845;DHT22;9047;53.486;10.218;2023-09-19T04:18:49;15.50;99.90
17845;DHT22;9047;53.486;10.218;2023-09-19T04:21:22;15.40;99.90
17845;DHT22;9047;53.486;10.218;2023-09-19T04:23:52;15.40;99.90
17845;DHT22;9047;53.486;10.218;2023-09-19T04:26:21;15.40;99.90
17845;DHT22;9047;53.486;10.218;2023-09-19T04:28:50;15.30;99.90
17845;DHT22;9047;53.486;10.218;2023-09-19T04:31:25;15.30;99.90
17845;DHT22;9047;53.486;10.218;2023-09-19T04:33:56;15.20;99.90
17845;DHT22;9047;53.486;10.218;2023-09-19T04:36:31;15.20;99.90
17845;DHT22;9047;53.486;10.218;2023-09-19T04:38:58;15.10;99.90
17845;DHT22;9047;53.486;10.218;2023-09-19T04:41:27;15.00;99.90
17845;DHT22;9047;53.486;10.218;2023-09-19T04:43:55;15.00;99.90
17845;DHT22;9047;53.486;10.218;2023-09-19T04:46:25;15.00;99.90
17845;DHT22;9047;53.486;10.218;2023-09-19T04:48:53;15.00;99.90
17845;DHT22;9047;53.486;10.218;2023-09-19T04:51:28;14.90;99.90
17845;DHT22;9047;53.486;10.218;2023-09-19T04:54:03;14.90;99.90
17845;DHT22;9047;53.486;10.218;2023-09-19T04:56:35;14.90;99.90
17845;DHT22;9047;53.486;10.218;2023-09-19T04:59:10;14.80;99.90
17845;DHT22;9047;53.486;10.218;2023-09-19T05:01:43;14.80;99.90
17845;DHT22;9047;53.486;10.218;2023-09-19T05:04:11;14.70;99.90
17845;DHT22;9047;53.486;10.218;2023-09-19T05:06:41;14.70;99.90
17845;DHT22;9047;53.486;10.218;2023-09-19T05:09:12;14.70;99.90
17845;DHT22;9047;53.486;10.218;2023-09-19T05:11:44;14.70;99.90
17845;DHT22;9047;53.486;10.218;2023-09-19T05:14:14;14.70;99.90
17845;DHT22;9047;53.486;10.218;2023-09-19T05:17:15;14.70;99.90
17845;DHT22;9047;53.486;10.218;2023-09-19T05:19:54;14.60;99.90
17845;DHT22;9047;53.486;10.218;2023-09-19T05:22:22;14.60;99.90
17845;DHT22;9047;53.486;10.218;2023-09-19T05:24:50;14.60;99.90
17845;DHT22;9047;53.486;10.218;2023-09-19T05:27:43;14.60;99.90
17845;DHT22;9047;53.486;10.218;2023-09-19T05:30:12;14.60;99.90
17845;DHT22;9047;53.486;10.218;2023-09-19T05:32:43;14.60;99.90
17845;DHT22;9047;53.486;10.218;2023-09-19T05:35:13;14.60;99.90
17845;DHT22;9047;53.486;10.218;2023-09-19T05:37:42;14.60;99.90
17845;DHT22;9047;53.486;10.218;2023-09-19T05:40:14;14.60;99.90
17845;DHT22;9047;53.486;10.218;2023-09-19T05:42:44;14.50;99.90
17845;DHT22;9047;53.486;10.218;2023-09-19T05:45:12;14.50;99.90
17845;DHT22;9047;53.486;10.218;2023-09-19T05:47:53;14.50;99.90
17845;DHT22;9047;53.486;10.218;2023-09-19T05:50:22;14.40;99.90
17845;DHT22;9047;53.486;10.218;2023-09-19T05:52:55;14.50;99.90
17845;DHT22;9047;53.486;10.218;2023-09-19T05:55:22;14.40;99.90
17845;DHT22;9047;53.486;10.218;2023-09-19T05:58:05;14.50;99.90
17845;DHT22;9047;53.486;10.218;2023-09-19T06:00:42;14.50;99.90
17845;DHT22;9047;53.486;10.218;2023-09-19T06:03:10;14.50;99.90
17845;DHT22;9047;53.486;10.218;2023-09-19T06:05:40;14.60;99.90
17845;DHT22;9047;53.486;10.218;2023-09-19T06:08:07;14.60;99.90
17845;DHT22;9047;53.486;10.218;2023-09-19T06:10:35;14.80;99.90
17845;DHT22;9047;53.486;10.218;2023-09-19T06:13:10;14.90;99.90
17845;DHT22;9047;53.486;10.218;2023-09-19T06:15:38;15.10;99.90
17845;DHT22;9047;53.486;10.218;2023-09-19T06:18:10;15.30;99.90
17845;DHT22;9047;53.486;10.218;2023-09-19T06:20:40;15.50;99.90
17845;DHT22;9047;53.486;10.218;2023-09-19T06:23:10;15.90;99.90
17845;DHT22;9047;53.486;10.218;2023-09-19T06:25:40;16.30;99.90
17845;DHT22;9047;53.486;10.218;2023-09-19T06:28:11;16.90;99.90
17845;DHT22;9047;53.486;10.218;2023-09-19T06:30:39;17.30;99.90
17845;DHT22;9047;53.486;10.218;2023-09-19T06:33:07;17.50;99.90
17845;DHT22;9047;53.486;10.218;2023-09-19T06:35:38;17.60;99.90
17845;DHT22;9047;53.486;10.218;2023-09-19T06:38:08;17.80;99.90
17845;DHT22;9047;53.486;10.218;2023-09-19T06:40:39;18.00;99.90
17845;DHT22;9047;53.486;10.218;2023-09-19T06:43:14;18.00;99.90
17845;DHT22;9047;53.486;10.218;2023-09-19T06:45:42;18.20;99.90
17845;DHT22;9047;53.486;10.218;2023-09-19T06:48:09;18.30;99.90
17845;DHT22;9047;53.486;10.218;2023-09-19T06:50:38;18.40;99.90
17845;DHT22;9047;53.486;10.218;2023-09-19T06:53:07;18.40;99.90
17845;DHT22;9047;53.486;10.218;2023-09-19T06:55:36;18.40;99.90
17845;DHT22;9047;53.486;10.218;2023-09-19T06:58:05;18.60;99.90
17845;DHT22;9047;53.486;10.218;2023-09-19T07:00:34;18.60;99.90
17845;DHT22;9047;53.486;10.218;2023-09-19T07:03:05;18.60;99.90
17845;DHT22;9047;53.486;10.218;2023-09-19T07:05:38;18.50;99.90
17845;DHT22;9047;53.486;10.218;2023-09-19T07:08:15;18.40;99.90
17845;DHT22;9047;53.486;10.218;2023-09-19T07:10:45;18.20;99.90
17845;DHT22;9047;53.486;10.218;2023-09-19T07:13:20;18.00;99.90
17845;DHT22;9047;53.486;10.218;2023-09-19T07:15:50;18.00;99.90
17845;DHT22;9047;53.486;10.218;2023-09-19T07:18:24;18.00;99.90
17845;DHT22;9047;53.486;10.218;2023-09-19T07:20:58;18.00;99.90
17845;DHT22;9047;53.486;10.218;2023-09-19T07:23:30;17.90;99.90
17845;DHT22;9047;53.486;10.218;2023-09-19T07:26:01;17.90;99.90
17845;DHT22;9047;53.486;10.218;2023-09-19T07:28:37;17.90;99.90
17845;DHT22;9047;53.486;10.218;2023-09-19T07:31:05;17.80;99.90
17845;DHT22;9047;53.486;10.218;2023-09-19T07:33:35;17.80;99.90
17845;DHT22;9047;53.486;10.218;2023-09-19T07:36:03;17.90;99.90
17845;DHT22;9047;53.486;10.218;2023-09-19T07:38:30;17.90;99.90
17845;DHT22;9047;53.486;10.218;2023-09-19T07:41:01;17.90;99.90
17845;DHT22;9047;53.486;10.218;2023-09-19T07:43:29;17.90;99.90
17845;DHT22;9047;53.486;10.218;2023-09-19T07:46:05;17.90;99.90
17845;DHT22;9047;53.486;10.218;2023-09-19T07:48:35;17.90;99.90
17845;DHT22;9047;53.486;10.218;2023-09-19T07:51:05;18.00;99.90
17845;DHT22;9047;53.486;10.218;2023-09-19T07:53:32;18.10;99.90
17845;DHT22;9047;53.486;10.218;2023-09-19T07:56:05;18.10;99.90
17845;DHT22;9047;53.486;10.218;2023-09-19T07:58:33;18.20;99.90
17845;DHT22;9047;53.486;10.218;2023-09-19T08:01:07;18.10;99.90
17845;DHT22;9047;53.486;10.218;2023-09-19T08:03:42;18.00;99.90
17845;DHT22;9047;53.486;10.218;2023-09-19T08:06:12;17.90;99.90
17845;DHT22;9047;53.486;10.218;2023-09-19T08:08:41;17.80;99.90
17845;DHT22;9047;53.486;10.218;2023-09-19T08:11:10;17.70;99.90
17845;DHT22;9047;53.486;10.218;2023-09-19T08:13:47;17.60;99.90
17845;DHT22;9047;53.486;10.218;2023-09-19T08:16:17;17.60;99.90
17845;DHT22;9047;53.486;10.218;2023-09-19T08:18:47;17.50;99.90
17845;DHT22;9047;53.486;10.218;2023-09-19T08:21:25;17.50;99.90
17845;DHT22;9047;53.486;10.218;2023-09-19T08:23:55;17.50;99.90
17845;DHT22;9047;53.486;10.218;2023-09-19T08:26:23;17.50;99.90
17845;DHT22;9047;53.486;10.218;2023-09-19T08:28:52;17.50;99.90
17845;DHT22;9047;53.486;10.218;2023-09-19T08:31:25;17.50;99.90
17845;DHT22;9047;53.486;10.218;2023-09-19T08:33:52;17.60;99.90
17845;DHT22;9047;53.486;10.218;2023-09-19T08:36:24;17.60;99.90
17845;DHT22;9047;53.486;10.218;2023-09-19T08:38:51;17.80;99.90
17845;DHT22;9047;53.486;10.218;2023-09-19T08:41:25;17.80;99.90
17845;DHT22;9047;53.486;10.218;2023-09-19T08:43:52;17.90;99.90
17845;DHT22;9047;53.486;10.218;2023-09-19T08:46:23;18.00;99.90
17845;DHT22;9047;53.486;10.218;2023-09-19T08:48:58;18.20;99.90
17845;DHT22;9047;53.486;10.218;2023-09-19T08:51:33;18.20;99.90
17845;DHT22;9047;53.486;10.218;2023-09-19T08:54:07;18.20;99.90
17845;DHT22;9047;53.486;10.218;2023-09-19T08:56:36;18.30;99.90
17845;DHT22;9047;53.486;10.218;2023-09-19T08:59:06;18.30;99.90
17845;DHT22;9047;53.486;10.218;2023-09-19T09:01:35;18.30;99.90
17845;DHT22;9047;53.486;10.218;2023-09-19T09:04:03;18.40;99.90
17845;DHT22;9047;53.486;10.218;2023-09-19T09:06:36;18.50;99.90
17845;DHT22;9047;53.486;10.218;2023-09-19T09:09:06;18.60;99.90
17845;DHT22;9047;53.486;10.218;2023-09-19T09:11:34;18.60;99.90
17845;DHT22;9047;53.486;10.218;2023-09-19T09:14:06;18.60;99.90
17845;DHT22;9047;53.486;10.218;2023-09-19T09:16:36;18.60;99.90
17845;DHT22;9047;53.486;10.218;2023-09-19T09:19:03;18.70;99.90
17845;DHT22;9047;53.486;10.218;2023-09-19T09:21:32;18.70;99.90
17845;DHT22;9047;53.486;10.218;2023-09-19T09:24:28;18.80;99.90
17845;DHT22;9047;53.486;10.218;2023-09-19T09:26:58;18.90;99.90
17845;DHT22;9047;53.486;10.218;2023-09-19T09:29:44;18.90;99.90
17845;DHT22;9047;53.486;10.218;2023-09-19T09:32:33;19.00;99.90
17845;DHT22;9047;53.486;10.218;2023-09-19T09:35:08;19.30;99.90
17845;DHT22;9047;53.486;10.218;2023-09-19T09:37:37;19.40;99.90
17845;DHT22;9047;53.486;10.218;2023-09-19T09:40:07;19.50;99.90
17845;DHT22;9047;53.486;10.218;2023-09-19T09:42:49;19.50;99.90
17845;DHT22;9047;53.486;10.218;2023-09-19T09:45:27;19.50;99.90
17845;DHT22;9047;53.486;10.218;2023-09-19T09:48:08;19.60;99.90
17845;DHT22;9047;53.486;10.218;2023-09-19T09:50:47;19.70;99.90
17845;DHT22;9047;53.486;10.218;2023-09-19T09:53:23;19.80;99.90
17845;DHT22;9047;53.486;10.218;2023-09-19T09:56:02;19.80;99.90
17845;DHT22;9047;53.486;10.218;2023-09-19T09:58:35;19.90;99.90
17845;DHT22;9047;53.486;10.218;2023-09-19T10:01:06;20.00;99.90
17845;DHT22;9047;53.486;10.218;2023-09-19T10:03:39;20.10;99.90
17845;DHT22;9047;53.486;10.218;2023-09-19T10:06:12;20.30;99.90
17845;DHT22;9047;53.486;10.218;2023-09-19T10:09:01;20.30;99.90
17845;DHT22;9047;53.486;10.218;2023-09-19T10:11:42;20.30;99.90
17845;DHT22;9047;53.486;10.218;2023-09-19T10:14:11;20.30;99.90
17845;DHT22;9047;53.486;10.218;2023-09-19T10:16:46;20.40;99.90
17845;DHT22;9047;53.486;10.218;2023-09-19T10:19:24;20.40;99.90
17845;DHT22;9047;53.486;10.218;2023-09-19T10:22:00;20.30;99.90
17845;DHT22;9047;53.486;10.218;2023-09-19T10:24:34;20.20;99.90
17845;DHT22;9047;53.486;10.218;2023-09-19T10:27:04;20.20;99.90
17845;DHT22;9047;53.486;10.218;2023-09-19T10:29:36;20.20;99.90
17845;DHT22;9047;53.486;10.218;2023-09-19T10:32:14;20.30;99.90
17845;DHT22;9047;53.486;10.218;2023-09-19T10:34:52;20.40;99.90
17845;DHT22;9047;53.486;10.218;2023-09-19T10:37:22;20.40;99.90
17845;DHT22;9047;53.486;10.218;2023-09-19T10:39:52;20.40;99.90
17845;DHT22;9047;53.486;10.218;2023-09-19T10:42:20;20.40;99.90
17845;DHT22;9047;53.486;10.218;2023-09-19T10:44:52;20.60;99.90
17845;DHT22;9047;53.486;10.218;2023-09-19T10:47:23;20.80;99.90
17845;DHT22;9047;53.486;10.218;2023-09-19T10:49:57;20.90;99.90
17845;DHT22;9047;53.486;10.218;2023-09-19T10:52:26;20.90;99.90
17845;DHT22;9047;53.486;10.218;2023-09-19T10:55:00;20.90;99.90
17845;DHT22;9047;53.486;10.218;2023-09-19T10:57:29;20.80;99.90
17845;DHT22;9047;53.486;10.218;2023-09-19T11:00:04;20.80;99.90
17845;DHT22;9047;53.486;10.218;2023-09-19T11:03:19;20.70;99.90
17845;DHT22;9047;53.486;10.218;2023-09-19T11:06:13;20.60;99.90
17845;DHT22;9047;53.486;10.218;2023-09-19T11:08:58;20.50;99.90
17845;DHT22;9047;53.486;10.218;2023-09-19T11:11:40;20.50;99.90
17845;DHT22;9047;53.486;10.218;2023-09-19T11:14:30;20.40;99.90
17845;DHT22;9047;53.486;10.218;2023-09-19T11:20:24;20.40;99.90
17845;DHT22;9047;53.486;10.218;2023-09-19T11:26:05;20.50;99.90
17845;DHT22;9047;53.486;10.218;2023-09-19T11:29:25;20.60;99.90
17845;DHT22;9047;53.486;10.218;2023-09-19T11:31:52;20.70;99.90
17845;DHT22;9047;53.486;10.218;2023-09-19T11:34:43;20.70;99.90
17845;DHT22;9047;53.486;10.218;2023-09-19T11:40:37;20.50;99.90
17845;DHT22;9047;53.486;10.218;2023-09-19T11:43:34;20.40;99.90
17845;DHT22;9047;53.486;10.218;2023-09-19T11:46:10;20.40;99.90
17845;DHT22;9047;53.486;10.218;2023-09-19T11:48:43;20.50;99.90
17845;DHT22;9047;53.486;10.218;2023-09-19T11:51:13;20.50;99.90
17845;DHT22;9047;53.486;10.218;2023-09-19T11:53:46;20.50;99.90
17845;DHT22;9047;53.486;10.218;2023-09-19T11:56:24;20.50;99.90
17845;DHT22;9047;53.486;10.218;2023-09-19T11:58:55;20.50;99.90
17845;DHT22;9047;53.486;10.218;2023-09-19T12:01:29;20.60;99.90
17845;DHT22;9047;53.486;10.218;2023-09-19T12:03:58;20.60;99.90
17845;DHT22;9047;53.486;10.218;2023-09-19T12:06:27;20.60;99.90
17845;DHT22;9047;53.486;10.218;2023-09-19T12:08:55;20.60;99.90
17845;DHT22;9047;53.486;10.218;2023-09-19T12:11:30;20.80;99.90
17845;DHT22;9047;53.486;10.218;2023-09-19T12:14:06;20.80;99.90
17845;DHT22;9047;53.486;10.218;2023-09-19T12:16:35;20.80;99.90
17845;DHT22;9047;53.486;10.218;2023-09-19T12:19:28;20.70;99.90
17845;DHT22;9047;53.486;10.218;2023-09-19T12:21:56;20.70;99.90
17845;DHT22;9047;53.486;10.218;2023-09-19T12:24:26;20.70;99.90
17845;DHT22;9047;53.486;10.218;2023-09-19T12:27:02;20.70;99.90
17845;DHT22;9047;53.486;10.218;2023-09-19T12:29:42;20.70;99.90
17845;DHT22;9047;53.486;10.218;2023-09-19T12:32:09;20.70;99.90
17845;DHT22;9047;53.486;10.218;2023-09-19T12:34:37;20.70;99.90
17845;DHT22;9047;53.486;10.218;2023-09-19T12:37:09;20.80;99.90
17845;DHT22;9047;53.486;10.218;2023-09-19T12:39:42;20.80;99.90
17845;DHT22;9047;53.486;10.218;2023-09-19T12:46:00;20.70;99.90
17845;DHT22;9047;53.486;10.218;2023-09-19T12:48:29;20.70;99.90
17845;DHT22;9047;53.486;10.218;2023-09-19T12:51:05;20.70;99.90
17845;DHT22;9047;53.486;10.218;2023-09-19T12:53:34;20.80;99.90
17845;DHT22;9047;53.486;10.218;2023-09-19T12:56:07;20.90;99.90
17845;DHT22;9047;53.486;10.218;2023-09-19T12:58:49;20.80;99.90
17845;DHT22;9047;53.486;10.218;2023-09-19T13:01:18;20.80;99.90
17845;DHT22;9047;53.486;10.218;2023-09-19T13:03:45;20.80;99.90
17845;DHT22;9047;53.486;10.218;2023-09-19T13:06:12;20.80;99.90
17845;DHT22;9047;53.486;10.218;2023-09-19T13:08:43;20.70;99.90
17845;DHT22;9047;53.486;10.218;2023-09-19T13:11:16;20.80;99.90
17845;DHT22;9047;53.486;10.218;2023-09-19T13:13:47;20.90;99.90
17845;DHT22;9047;53.486;10.218;2023-09-19T13:16:17;21.10;99.90
17845;DHT22;9047;53.486;10.218;2023-09-19T13:18:49;21.30;99.90
17845;DHT22;9047;53.486;10.218;2023-09-19T13:21:29;21.40;99.90
17845;DHT22;9047;53.486;10.218;2023-09-19T13:24:19;21.50;99.90
17845;DHT22;9047;53.486;10.218;2023-09-19T13:26:46;21.50;99.90
17845;DHT22;9047;53.486;10.218;2023-09-19T13:29:13;21.50;99.90
17845;DHT22;9047;53.486;10.218;2023-09-19T13:31:48;21.40;99.90
17845;DHT22;9047;53.486;10.218;2023-09-19T13:34:19;21.40;99.90
17845;DHT22;9047;53.486;10.218;2023-09-19T13:36:48;21.30;99.90
17845;DHT22;9047;53.486;10.218;2023-09-19T13:39:24;21.30;99.90
17845;DHT22;9047;53.486;10.218;2023-09-19T13:44:41;21.50;99.90
17845;DHT22;9047;53.486;10.218;2023-09-19T13:47:18;21.50;99.90
17845;DHT22;9047;53.486;10.218;2023-09-19T13:49:51;21.60;99.90
17845;DHT22;9047;53.486;10.218;2023-09-19T13:52:19;21.60;99.90
17845;DHT22;9047;53.486;10.218;2023-09-19T13:54:47;21.70;99.90
17845;DHT22;9047;53.486;10.218;2023-09-19T13:57:15;21.70;99.90
17845;DHT22;9047;53.486;10.218;2023-09-19T13:59:42;21.70;99.90
17845;DHT22;9047;53.486;10.218;2023-09-19T14:02:16;21.70;99.90
17845;DHT22;9047;53.486;10.218;2023-09-19T14:04:43;21.50;99.90
17845;DHT22;9047;53.486;10.218;2023-09-19T14:07:10;21.50;99.90
17845;DHT22;9047;53.486;10.218;2023-09-19T14:09:38;21.50;99.90
17845;DHT22;9047;53.486;10.218;2023-09-19T14:12:07;21.40;99.90
17845;DHT22;9047;53.486;10.218;2023-09-19T14:14:35;21.30;99.90
17845;DHT22;9047;53.486;10.218;2023-09-19T14:17:03;21.30;99.90
17845;DHT22;9047;53.486;10.218;2023-09-19T14:19:37;21.30;99.90
17845;DHT22;9047;53.486;10.218;2023-09-19T14:22:09;21.40;99.90
17845;DHT22;9047;53.486;10.218;2023-09-19T14:24:37;21.30;99.90
17845;DHT22;9047;53.486;10.218;2023-09-19T14:27:07;21.30;99.90
17845;DHT22;9047;53.486;10.218;2023-09-19T14:29:34;21.20;99.90
17845;DHT22;9047;53.486;10.218;2023-09-19T14:32:02;21.20;99.90
17845;DHT22;9047;53.486;10.218;2023-09-19T14:34:35;21.20;99.90
17845;DHT22;9047;53.486;10.218;2023-09-19T14:37:08;21.20;99.90
17845;DHT22;9047;53.486;10.218;2023-09-19T14:39:36;21.30;99.90
17845;DHT22;9047;53.486;10.218;2023-09-19T14:42:05;21.20;99.90
17845;DHT22;9047;53.486;10.218;2023-09-19T14:44:33;21.10;99.90
17845;DHT22;9047;53.486;10.218;2023-09-19T14:47:00;21.00;99.90
17845;DHT22;9047;53.486;10.218;2023-09-19T14:49:36;20.90;99.90
17845;DHT22;9047;53.486;10.218;2023-09-19T14:52:07;20.80;99.90
17845;DHT22;9047;53.486;10.218;2023-09-19T14:54:36;20.70;99.90
17845;DHT22;9047;53.486;10.218;2023-09-19T14:57:06;20.50;99.90
17845;DHT22;9047;53.486;10.218;2023-09-19T14:59:41;20.40;99.90
17845;DHT22;9047;53.486;10.218;2023-09-19T15:02:10;20.30;99.90
17845;DHT22;9047;53.486;10.218;2023-09-19T15:04:46;20.30;99.90
17845;DHT22;9047;53.486;10.218;2023-09-19T15:07:13;20.40;99.90
17845;DHT22;9047;53.486;10.218;2023-09-19T15:09:45;20.40;99.90
17845;DHT22;9047;53.486;10.218;2023-09-19T15:12:14;20.30;99.90
17845;DHT22;9047;53.486;10.218;2023-09-19T15:14:58;20.30;99.90
17845;DHT22;9047;53.486;10.218;2023-09-19T15:17:40;20.30;99.90
17845;DHT22;9047;53.486;10.218;2023-09-19T15:20:12;20.10;99.90
17845;DHT22;9047;53.486;10.218;2023-09-19T15:22:43;20.10;99.90
17845;DHT22;9047;53.486;10.218;2023-09-19T15:25:13;20.10;99.90
17845;DHT22;9047;53.486;10.218;2023-09-19T15:27:44;20.00;99.90
17845;DHT22;9047;53.486;10.218;2023-09-19T15:30:12;19.90;99.90
17845;DHT22;9047;53.486;10.218;2023-09-19T15:32:41;19.90;99.90
17845;DHT22;9047;53.486;10.218;2023-09-19T15:35:16;19.90;99.90
17845;DHT22;9047;53.486;10.218;2023-09-19T15:37:43;19.90;99.90
17845;DHT22;9047;53.486;10.218;2023-09-19T15:40:12;19.90;99.90
17845;DHT22;9047;53.486;10.218;2023-09-19T15:42:40;19.90;99.90
17845;DHT22;9047;53.486;10.218;2023-09-19T15:45:09;19.90;99.90
17845;DHT22;9047;53.486;10.218;2023-09-19T15:47:37;19.90;99.90
17845;DHT22;9047;53.486;10.218;2023-09-19T15:50:05;19.90;99.90
17845;DHT22;9047;53.486;10.218;2023-09-19T15:52:34;19.90;99.90
17845;DHT22;9047;53.486;10.218;2023-09-19T15:55:06;19.90;99.90
17845;DHT22;9047;53.486;10.218;2023-09-19T15:57:38;19.90;99.90
17845;DHT22;9047;53.486;10.218;2023-09-19T16:00:07;19.90;99.90
17845;DHT22;9047;53.486;10.218;2023-09-19T16:02:41;19.80;99.90
17845;DHT22;9047;53.486;10.218;2023-09-19T16:05:09;19.80;99.90
17845;DHT22;9047;53.486;10.218;2023-09-19T16:07:40;19.70;99.90
17845;DHT22;9047;53.486;10.218;2023-09-19T16:10:08;19.70;99.90
17845;DHT22;9047;53.486;10.218;2023-09-19T16:12:37;19.60;99.90
17845;DHT22;9047;53.486;10.218;2023-09-19T16:15:08;19.60;99.90
17845;DHT22;9047;53.486;10.218;2023-09-19T16:17:40;19.60;99.90
17845;DHT22;9047;53.486;10.218;2023-09-19T16:20:07;19.60;99.90